createdAt,value
2023-05-09T00:01:43.866Z,100.00
2023-05-09T00:04:11.316Z,100.00
2023-05-09T00:06:38.454Z,100.00
2023-05-09T00:09:05.570Z,100.00
2023-05-09T00:11:32.738Z,100.00
2023-05-09T00:13:59.806Z,100.00
2023-05-09T00:16:26.997Z,100.00
2023-05-09T00:18:54.454Z,100.00
2023-05-09T00:21:21.633Z,100.00
2023-05-09T00:23:48.769Z,100.00
2023-05-09T00:26:16.283Z,100.00
2023-05-09T00:28:44.368Z,100.00
2023-05-09T00:31:11.382Z,100.00
2023-05-09T00:33:38.568Z,100.00
2023-05-09T00:36:05.909Z,100.00
2023-05-09T00:38:33.041Z,100.00
2023-05-09T00:41:00.136Z,100.00
2023-05-09T00:43:27.321Z,100.00
2023-05-09T00:45:54.430Z,100.00
2023-05-09T00:48:22.433Z,100.00
2023-05-09T00:50:52.997Z,100.00
2023-05-09T00:53:20.810Z,100.00
2023-05-09T00:55:48.784Z,100.00
2023-05-09T00:58:16.916Z,100.00
2023-05-09T01:00:44.006Z,100.00
2023-05-09T01:03:11.572Z,100.00
2023-05-09T01:05:57.261Z,100.00
2023-05-09T01:08:34.582Z,100.00
2023-05-09T01:11:10.817Z,100.00
2023-05-09T01:13:46.942Z,100.00
2023-05-09T01:16:26.590Z,100.00
2023-05-09T01:19:20.077Z,100.00
2023-05-09T01:21:49.280Z,100.00
2023-05-09T01:24:34.730Z,100.00
2023-05-09T01:27:14.079Z,100.00
2023-05-09T01:30:03.316Z,100.00
2023-05-09T01:32:34.152Z,100.00
2023-05-09T01:35:04.619Z,100.00
2023-05-09T01:37:35.037Z,100.00
2023-05-09T01:40:10.537Z,100.00
2023-05-09T01:42:43.536Z,100.00
2023-05-09T01:45:12.751Z,100.00
2023-05-09T01:47:41.745Z,100.00
2023-05-09T01:50:12.247Z,100.00
2023-05-09T01:52:41.343Z,100.00
2023-05-09T01:55:09.627Z,100.00
2023-05-09T01:57:38.680Z,100.00
2023-05-09T02:00:10.779Z,100.00
2023-05-09T02:02:41.699Z,100.00
2023-05-09T02:05:12.051Z,100.00
2023-05-09T02:07:41.852Z,100.00
2023-05-09T02:10:11.137Z,100.00
2023-05-09T02:12:38.931Z,100.00
2023-05-09T02:15:07.068Z,100.00
2023-05-09T02:17:35.166Z,100.00
2023-05-09T02:20:02.208Z,100.00
2023-05-09T02:22:31.267Z,100.00
2023-05-09T02:24:58.494Z,100.00
2023-05-09T02:27:27.147Z,100.00
2023-05-09T02:29:57.679Z,100.00
2023-05-09T02:32:29.311Z,100.00
2023-05-09T02:34:58.910Z,100.00
2023-05-09T02:37:27.058Z,100.00
2023-05-09T02:39:55.396Z,100.00
2023-05-09T02:42:30.159Z,100.00
2023-05-09T02:44:57.202Z,100.00
2023-05-09T02:47:24.378Z,100.00
2023-05-09T02:49:51.412Z,100.00
2023-05-09T02:52:18.626Z,100.00
2023-05-09T02:54:45.888Z,100.00
2023-05-09T02:57:13.002Z,100.00
2023-05-09T02:59:40.169Z,100.00
2023-05-09T03:02:07.320Z,100.00
2023-05-09T03:04:34.543Z,100.00
2023-05-09T03:07:02.085Z,100.00
2023-05-09T03:09:32.456Z,100.00
2023-05-09T03:12:00.529Z,100.00
2023-05-09T03:14:27.523Z,100.00
2023-05-09T03:16:55.141Z,100.00
2023-05-09T03:19:30.290Z,100.00
2023-05-09T03:21:57.379Z,100.00
2023-05-09T03:24:28.241Z,100.00
2023-05-09T03:26:55.419Z,100.00
2023-05-09T03:29:22.620Z,100.00
2023-05-09T03:31:49.799Z,100.00
2023-05-09T03:34:17.049Z,100.00
2023-05-09T03:36:45.181Z,100.00
2023-05-09T03:39:14.703Z,100.00
2023-05-09T03:41:44.947Z,100.00
2023-05-09T03:44:12.682Z,100.00
2023-05-09T03:46:39.808Z,100.00
2023-05-09T03:49:07.546Z,100.00
2023-05-09T03:51:35.562Z,100.00
2023-05-09T03:54:05.745Z,100.00
2023-05-09T03:56:33.016Z,100.00
2023-05-09T03:59:00.150Z,100.00
2023-05-09T04:01:28.181Z,100.00
2023-05-09T04:04:00.330Z,100.00
2023-05-09T04:06:30.202Z,100.00
2023-05-09T04:08:58.350Z,100.00
2023-05-09T04:11:25.785Z,100.00
2023-05-09T04:13:54.594Z,100.00
2023-05-09T04:16:26.949Z,100.00
2023-05-09T04:18:54.477Z,100.00
2023-05-09T04:21:21.698Z,100.00
2023-05-09T04:23:51.587Z,100.00
2023-05-09T04:26:24.798Z,100.00
2023-05-09T04:28:54.910Z,100.00
2023-05-09T04:31:23.350Z,100.00
2023-05-09T04:33:52.465Z,100.00
2023-05-09T04:36:21.166Z,100.00
2023-05-09T04:38:48.935Z,100.00
2023-05-09T04:41:21.553Z,100.00
2023-05-09T04:43:48.810Z,100.00
2023-05-09T04:46:16.191Z,100.00
2023-05-09T04:48:43.548Z,100.00
2023-05-09T04:51:10.953Z,100.00
2023-05-09T04:53:38.221Z,100.00
2023-05-09T04:56:06.659Z,100.00
2023-05-09T04:58:38.543Z,100.00
2023-05-09T05:01:09.515Z,100.00
2023-05-09T05:03:36.711Z,100.00
2023-05-09T05:06:04.781Z,100.00
2023-05-09T05:08:32.596Z,100.00
2023-05-09T05:10:59.819Z,100.00
2023-05-09T05:13:27.473Z,100.00
2023-05-09T05:15:59.027Z,100.00
2023-05-09T05:18:26.159Z,100.00
2023-05-09T05:20:54.150Z,100.00
2023-05-09T05:23:21.873Z,100.00
2023-05-09T05:25:52.435Z,100.00
2023-05-09T05:28:19.776Z,100.00
2023-05-09T05:30:47.352Z,100.00
2023-05-09T05:33:14.528Z,100.00
2023-05-09T05:35:41.855Z,100.00
2023-05-09T05:38:09.165Z,100.00
2023-05-09T05:40:36.618Z,100.00
2023-05-09T05:43:05.969Z,100.00
2023-05-09T05:45:35.156Z,100.00
2023-05-09T05:48:05.684Z,100.00
2023-05-09T05:50:33.144Z,100.00
2023-05-09T05:53:00.280Z,100.00
2023-05-09T05:55:27.479Z,100.00
2023-05-09T05:57:54.649Z,100.00
2023-05-09T06:00:22.000Z,100.00
2023-05-09T06:02:55.987Z,100.00
2023-05-09T06:05:36.794Z,100.00
2023-05-09T06:08:05.099Z,100.00
2023-05-09T06:10:32.979Z,100.00
2023-05-09T06:13:00.552Z,100.00
2023-05-09T06:15:27.974Z,100.00
2023-05-09T06:17:55.846Z,100.00
2023-05-09T06:20:23.099Z,100.00
2023-05-09T06:22:50.324Z,100.00
2023-05-09T06:25:17.533Z,100.00
2023-05-09T06:27:45.703Z,100.00
2023-05-09T06:30:24.812Z,100.00
2023-05-09T06:32:58.376Z,100.00
2023-05-09T06:35:25.772Z,100.00
2023-05-09T06:37:52.894Z,100.00
2023-05-09T06:40:20.209Z,100.00
2023-05-09T06:42:47.345Z,100.00
2023-05-09T06:45:15.495Z,100.00
2023-05-09T06:47:42.877Z,100.00
2023-05-09T06:50:10.127Z,100.00
2023-05-09T06:52:37.318Z,100.00
2023-05-09T06:55:04.735Z,100.00
2023-05-09T06:57:32.341Z,100.00
2023-05-09T06:59:59.448Z,100.00
2023-05-09T07:02:26.601Z,100.00
2023-05-09T07:04:53.731Z,100.00
2023-05-09T07:07:20.939Z,100.00
2023-05-09T07:09:50.748Z,100.00
2023-05-09T07:12:19.945Z,100.00
2023-05-09T07:14:47.006Z,100.00
2023-05-09T07:17:22.840Z,100.00
2023-05-09T07:19:51.584Z,100.00
2023-05-09T07:22:18.798Z,100.00
2023-05-09T07:24:46.638Z,100.00
2023-05-09T07:27:14.084Z,100.00
2023-05-09T07:29:41.334Z,100.00
2023-05-09T07:32:08.479Z,100.00
2023-05-09T07:34:36.370Z,100.00
2023-05-09T07:37:03.764Z,100.00
2023-05-09T07:39:30.860Z,100.00
2023-05-09T07:41:57.990Z,100.00
2023-05-09T07:44:25.207Z,100.00
2023-05-09T07:46:52.253Z,100.00
2023-05-09T07:49:19.267Z,100.00
2023-05-09T07:51:46.315Z,100.00
2023-05-09T07:54:13.725Z,100.00
2023-05-09T07:56:41.042Z,100.00
2023-05-09T07:59:08.224Z,100.00
2023-05-09T08:01:35.286Z,100.00
2023-05-09T08:04:02.617Z,100.00
2023-05-09T08:06:29.659Z,100.00
2023-05-09T08:08:56.821Z,100.00
2023-05-09T08:11:24.180Z,100.00
2023-05-09T08:13:51.411Z,100.00
2023-05-09T08:16:18.694Z,100.00
2023-05-09T08:18:46.234Z,100.00
2023-05-09T08:21:13.579Z,100.00
2023-05-09T08:23:41.435Z,100.00
2023-05-09T08:26:08.527Z,100.00
2023-05-09T08:28:35.716Z,100.00
2023-05-09T08:31:03.100Z,100.00
2023-05-09T08:33:30.669Z,100.00
2023-05-09T08:35:57.984Z,100.00
2023-05-09T08:38:25.072Z,100.00
2023-05-09T08:40:52.308Z,100.00
2023-05-09T08:43:22.146Z,100.00
2023-05-09T08:45:54.391Z,100.00
2023-05-09T08:48:22.726Z,100.00
2023-05-09T08:50:50.529Z,100.00
2023-05-09T08:53:17.970Z,100.00
2023-05-09T08:55:45.603Z,100.00
2023-05-09T08:58:13.831Z,100.00
2023-05-09T09:00:41.738Z,100.00
2023-05-09T09:03:08.864Z,100.00
2023-05-09T09:05:41.682Z,100.00
2023-05-09T09:08:11.152Z,100.00
2023-05-09T09:10:42.386Z,100.00
2023-05-09T09:13:12.589Z,100.00
2023-05-09T09:15:43.639Z,100.00
2023-05-09T09:18:22.203Z,100.00
2023-05-09T09:21:05.957Z,100.00
2023-05-09T09:23:33.695Z,100.00
2023-05-09T09:26:07.237Z,100.00
2023-05-09T09:28:34.158Z,100.00
2023-05-09T09:31:01.990Z,100.00
2023-05-09T09:33:29.718Z,100.00
2023-05-09T09:35:57.316Z,100.00
2023-05-09T09:38:25.110Z,100.00
2023-05-09T09:40:52.141Z,100.00
2023-05-09T09:43:19.417Z,100.00
2023-05-09T09:45:51.455Z,100.00
2023-05-09T09:48:18.625Z,100.00
2023-05-09T09:50:47.946Z,100.00
2023-05-09T09:53:14.913Z,100.00
2023-05-09T09:55:50.988Z,100.00
2023-05-09T09:58:21.936Z,100.00
2023-05-09T10:01:06.359Z,100.00
2023-05-09T10:03:42.272Z,100.00
2023-05-09T10:06:14.285Z,100.00
2023-05-09T10:08:43.764Z,100.00
2023-05-09T10:11:11.390Z,100.00
2023-05-09T10:13:39.442Z,100.00
2023-05-09T10:16:09.021Z,100.00
2023-05-09T10:18:36.539Z,100.00
2023-05-09T10:21:05.509Z,100.00
2023-05-09T10:23:38.489Z,100.00
2023-05-09T10:26:27.658Z,100.00
2023-05-09T10:29:01.610Z,100.00
2023-05-09T10:31:32.615Z,100.00
2023-05-09T10:34:05.457Z,100.00
2023-05-09T10:36:33.166Z,100.00
2023-05-09T10:39:01.269Z,100.00
2023-05-09T10:41:29.234Z,100.00
2023-05-09T10:43:58.330Z,100.00
2023-05-09T10:46:27.575Z,100.00
2023-05-09T10:48:55.612Z,100.00
2023-05-09T10:51:24.720Z,100.00
2023-05-09T10:53:51.897Z,100.00
2023-05-09T10:56:33.607Z,100.00
2023-05-09T10:59:00.946Z,100.00
2023-05-09T11:01:39.722Z,100.00
2023-05-09T11:04:12.908Z,100.00
2023-05-09T11:06:51.362Z,100.00
2023-05-09T11:09:39.266Z,100.00
2023-05-09T11:12:13.523Z,100.00
2023-05-09T11:14:47.377Z,100.00
2023-05-09T11:17:24.599Z,100.00
2023-05-09T11:19:51.852Z,100.00
2023-05-09T11:22:37.955Z,100.00
2023-05-09T11:25:10.356Z,100.00
2023-05-09T11:27:39.826Z,100.00
2023-05-09T11:30:09.051Z,100.00
2023-05-09T11:32:48.099Z,100.00
2023-05-09T11:35:21.071Z,100.00
2023-05-09T11:38:06.141Z,100.00
2023-05-09T11:40:34.977Z,100.00
2023-05-09T11:43:02.221Z,100.00
2023-05-09T11:45:31.631Z,100.00
2023-05-09T11:48:00.673Z,100.00
2023-05-09T11:50:28.012Z,100.00
2023-05-09T11:52:55.159Z,100.00
2023-05-09T11:55:22.995Z,100.00
2023-05-09T11:57:53.025Z,100.00
2023-05-09T12:00:24.907Z,100.00
2023-05-09T12:02:53.467Z,100.00
2023-05-09T12:05:22.989Z,100.00
2023-05-09T12:07:51.052Z,100.00
2023-05-09T12:10:23.362Z,100.00
2023-05-09T12:12:52.276Z,100.00
2023-05-09T12:15:21.514Z,100.00
2023-05-09T12:18:01.303Z,100.00
2023-05-09T12:20:28.401Z,100.00
2023-05-09T12:22:56.059Z,100.00
2023-05-09T12:25:23.114Z,100.00
2023-05-09T12:27:50.427Z,100.00
2023-05-09T12:30:18.785Z,100.00
2023-05-09T12:32:46.827Z,100.00
2023-05-09T12:35:14.822Z,100.00
2023-05-09T12:37:56.365Z,100.00
2023-05-09T12:40:23.633Z,100.00
2023-05-09T12:42:53.903Z,100.00
2023-05-09T12:45:21.218Z,100.00
2023-05-09T12:47:52.206Z,100.00
2023-05-09T12:50:19.629Z,100.00
2023-05-09T12:53:02.713Z,100.00
2023-05-09T12:55:31.719Z,100.00
2023-05-09T12:58:03.616Z,100.00
2023-05-09T13:00:43.481Z,100.00
2023-05-09T13:03:25.556Z,100.00
2023-05-09T13:06:02.472Z,100.00
2023-05-09T13:08:29.828Z,100.00
2023-05-09T13:11:07.742Z,100.00
2023-05-09T13:13:42.671Z,99.90
2023-05-09T13:16:11.130Z,100.00
2023-05-09T13:18:39.313Z,100.00
2023-05-09T13:21:06.456Z,100.00
2023-05-09T13:23:33.551Z,100.00
2023-05-09T13:26:00.526Z,99.92
2023-05-09T13:28:27.705Z,100.00
2023-05-09T13:30:54.843Z,100.00
2023-05-09T13:33:25.869Z,100.00
2023-05-09T13:35:53.859Z,99.90
2023-05-09T13:38:21.025Z,100.00
2023-05-09T13:40:48.052Z,98.82
2023-05-09T13:43:15.079Z,98.06
2023-05-09T13:45:42.403Z,99.35
2023-05-09T13:48:09.724Z,97.90
2023-05-09T13:50:36.779Z,98.79
2023-05-09T13:53:03.843Z,98.92
2023-05-09T13:55:31.106Z,98.57
2023-05-09T13:57:58.262Z,99.04
2023-05-09T14:00:26.740Z,98.97
2023-05-09T14:02:54.209Z,99.17
2023-05-09T14:05:21.700Z,100.00
2023-05-09T14:07:48.968Z,99.41
2023-05-09T14:10:17.651Z,99.32
2023-05-09T14:12:46.757Z,99.11
2023-05-09T14:15:14.181Z,97.12
2023-05-09T14:17:41.386Z,96.49
2023-05-09T14:20:09.068Z,96.12
2023-05-09T14:22:36.181Z,96.11
2023-05-09T14:25:03.279Z,95.25
2023-05-09T14:27:30.431Z,94.77
2023-05-09T14:29:57.641Z,95.09
2023-05-09T14:32:25.436Z,94.67
2023-05-09T14:34:52.556Z,94.54
2023-05-09T14:37:19.659Z,93.42
2023-05-09T14:39:46.950Z,94.26
2023-05-09T14:42:14.323Z,94.21
2023-05-09T14:44:41.974Z,92.92
2023-05-09T14:47:09.972Z,91.00
2023-05-09T14:49:38.820Z,93.57
2023-05-09T14:52:06.175Z,95.10
2023-05-09T14:54:33.245Z,95.87
2023-05-09T14:57:02.092Z,95.79
2023-05-09T14:59:29.684Z,97.03
2023-05-09T15:01:56.875Z,97.15
2023-05-09T15:04:28.283Z,98.17
2023-05-09T15:06:55.527Z,98.79
2023-05-09T15:09:22.742Z,98.03
2023-05-09T15:11:49.852Z,97.88
2023-05-09T15:14:17.108Z,98.07
2023-05-09T15:16:44.572Z,98.06
2023-05-09T15:19:11.655Z,98.08
2023-05-09T15:21:38.743Z,98.97
2023-05-09T15:24:06.292Z,99.92
2023-05-09T15:26:33.419Z,100.00
2023-05-09T15:29:00.460Z,100.00
2023-05-09T15:31:33.384Z,98.85
2023-05-09T15:34:01.169Z,98.00
2023-05-09T15:36:32.243Z,100.00
2023-05-09T15:38:59.581Z,100.00
2023-05-09T15:41:27.320Z,100.00
2023-05-09T15:43:54.350Z,100.00
2023-05-09T15:46:21.991Z,100.00
2023-05-09T15:48:49.175Z,100.00
2023-05-09T15:51:16.450Z,100.00
2023-05-09T15:53:43.598Z,98.79
2023-05-09T15:56:10.716Z,99.32
2023-05-09T15:58:37.797Z,99.03
2023-05-09T16:01:06.304Z,98.80
2023-05-09T16:03:35.021Z,99.27
2023-05-09T16:06:02.453Z,98.92
2023-05-09T16:08:29.584Z,98.62
2023-05-09T16:10:56.719Z,99.51
2023-05-09T16:13:24.027Z,98.66
2023-05-09T16:15:51.356Z,98.93
2023-05-09T16:18:18.904Z,99.00
2023-05-09T16:20:46.110Z,98.69
2023-05-09T16:23:13.346Z,97.85
2023-05-09T16:25:40.553Z,97.69
2023-05-09T16:28:08.565Z,98.69
2023-05-09T16:30:36.297Z,98.73
2023-05-09T16:33:03.968Z,99.11
2023-05-09T16:35:31.175Z,99.61
2023-05-09T16:37:58.394Z,99.35
2023-05-09T16:40:25.477Z,98.94
2023-05-09T16:42:53.842Z,98.42
2023-05-09T16:45:21.152Z,98.57
2023-05-09T16:47:48.652Z,99.01
2023-05-09T16:50:16.260Z,99.71
2023-05-09T16:52:43.572Z,99.63
2023-05-09T16:55:10.688Z,99.18
2023-05-09T16:57:37.798Z,99.36
2023-05-09T17:00:07.940Z,98.41
2023-05-09T17:02:36.370Z,97.81
2023-05-09T17:05:04.686Z,97.97
2023-05-09T17:07:32.314Z,97.97
2023-05-09T17:09:59.704Z,97.21
2023-05-09T17:12:27.803Z,97.17
2023-05-09T17:14:54.888Z,97.14
2023-05-09T17:17:22.004Z,96.87
2023-05-09T17:19:49.161Z,97.59
2023-05-09T17:22:16.217Z,96.77
2023-05-09T17:24:43.267Z,96.52
2023-05-09T17:27:11.574Z,96.36
2023-05-09T17:29:38.658Z,97.57
2023-05-09T17:32:06.772Z,96.69
2023-05-09T17:34:34.051Z,98.78
2023-05-09T17:37:02.429Z,97.87
2023-05-09T17:39:29.824Z,96.95
2023-05-09T17:41:56.929Z,96.65
2023-05-09T17:44:24.247Z,97.28
2023-05-09T17:46:51.397Z,97.51
2023-05-09T17:49:18.467Z,97.62
2023-05-09T17:51:45.571Z,96.79
2023-05-09T17:54:13.133Z,97.28
2023-05-09T17:56:40.279Z,97.23
2023-05-09T17:59:07.996Z,97.86
2023-05-09T18:01:35.245Z,98.07
2023-05-09T18:04:02.864Z,98.61
2023-05-09T18:06:30.014Z,98.05
2023-05-09T18:08:57.277Z,98.50
2023-05-09T18:11:24.710Z,98.67
2023-05-09T18:13:51.920Z,99.02
2023-05-09T18:16:19.134Z,99.19
2023-05-09T18:18:46.455Z,98.86
2023-05-09T18:21:13.632Z,99.17
2023-05-09T18:23:41.559Z,99.89
2023-05-09T18:26:08.783Z,99.28
2023-05-09T18:28:41.622Z,99.95
2023-05-09T18:31:11.896Z,99.59
2023-05-09T18:33:39.462Z,99.65
2023-05-09T18:36:09.632Z,99.34
2023-05-09T18:38:38.704Z,99.80
2023-05-09T18:41:08.710Z,99.94
2023-05-09T18:43:38.762Z,99.89
2023-05-09T18:46:06.011Z,100.00
2023-05-09T18:48:33.626Z,99.82
2023-05-09T18:51:00.880Z,99.97
2023-05-09T18:53:29.035Z,100.00
2023-05-09T18:55:58.832Z,100.00
2023-05-09T18:58:25.945Z,100.00
2023-05-09T19:00:53.266Z,100.00
2023-05-09T19:03:21.106Z,100.00
2023-05-09T19:05:48.129Z,100.00
2023-05-09T19:08:15.326Z,100.00
2023-05-09T19:10:42.704Z,100.00
2023-05-09T19:13:09.970Z,100.00
2023-05-09T19:15:37.484Z,100.00
2023-05-09T19:18:05.213Z,100.00
2023-05-09T19:20:32.400Z,100.00
2023-05-09T19:22:59.520Z,100.00
2023-05-09T19:25:26.912Z,100.00
2023-05-09T19:27:54.103Z,100.00
2023-05-09T19:30:21.259Z,100.00
2023-05-09T19:32:48.643Z,100.00
2023-05-09T19:35:16.238Z,100.00
2023-05-09T19:37:43.425Z,100.00
2023-05-09T19:40:11.482Z,100.00
2023-05-09T19:42:38.529Z,100.00
2023-05-09T19:45:06.182Z,100.00
2023-05-09T19:47:33.299Z,100.00
2023-05-09T19:50:02.221Z,100.00
2023-05-09T19:52:30.050Z,100.00
2023-05-09T19:54:57.195Z,100.00
2023-05-09T19:57:24.299Z,100.00
2023-05-09T19:59:52.255Z,100.00
2023-05-09T20:02:19.257Z,100.00
2023-05-09T20:04:50.061Z,100.00
2023-05-09T20:07:17.715Z,100.00
2023-05-09T20:09:45.937Z,100.00
2023-05-09T20:12:13.921Z,100.00
2023-05-09T20:14:41.061Z,100.00
2023-05-09T20:17:08.398Z,100.00
2023-05-09T20:19:35.534Z,100.00
2023-05-09T20:22:03.807Z,100.00
2023-05-09T20:24:33.617Z,100.00
2023-05-09T20:27:02.386Z,100.00
2023-05-09T20:29:29.583Z,100.00
2023-05-09T20:31:56.647Z,100.00
2023-05-09T20:34:24.762Z,100.00
2023-05-09T20:36:55.201Z,100.00
2023-05-09T20:39:23.130Z,100.00
2023-05-09T20:41:51.476Z,100.00
2023-05-09T20:44:19.227Z,100.00
2023-05-09T20:46:46.472Z,100.00
2023-05-09T20:49:13.862Z,100.00
2023-05-09T20:51:40.963Z,100.00
2023-05-09T20:54:08.200Z,100.00
2023-05-09T20:56:35.734Z,100.00
2023-05-09T20:59:04.436Z,100.00
2023-05-09T21:01:34.438Z,100.00
2023-05-09T21:04:01.478Z,100.00
2023-05-09T21:06:28.607Z,100.00
2023-05-09T21:08:55.640Z,100.00
2023-05-09T21:11:22.674Z,100.00
2023-05-09T21:13:50.346Z,100.00
2023-05-09T21:16:17.495Z,100.00
2023-05-09T21:18:44.639Z,100.00
2023-05-09T21:21:11.776Z,100.00
2023-05-09T21:23:38.826Z,100.00
2023-05-09T21:26:05.920Z,100.00
2023-05-09T21:28:33.063Z,100.00
2023-05-09T21:31:01.757Z,100.00
2023-05-09T21:33:29.576Z,100.00
2023-05-09T21:35:57.205Z,100.00
2023-05-09T21:38:24.335Z,100.00
2023-05-09T21:40:51.578Z,100.00
2023-05-09T21:43:19.075Z,100.00
2023-05-09T21:45:46.342Z,100.00
2023-05-09T21:48:13.767Z,100.00
2023-05-09T21:50:44.848Z,100.00
2023-05-09T21:53:12.736Z,100.00
2023-05-09T21:55:39.976Z,100.00
2023-05-09T21:58:07.058Z,100.00
2023-05-09T22:00:34.063Z,100.00
2023-05-09T22:03:01.290Z,100.00
2023-05-09T22:05:28.405Z,100.00
2023-05-09T22:07:55.524Z,100.00
2023-05-09T22:10:22.661Z,100.00
2023-05-09T22:12:49.821Z,100.00
2023-05-09T22:15:17.061Z,100.00
2023-05-09T22:17:44.773Z,100.00
2023-05-09T22:20:12.386Z,100.00
2023-05-09T22:22:39.425Z,100.00
2023-05-09T22:25:06.955Z,100.00
2023-05-09T22:27:34.052Z,100.00
2023-05-09T22:30:01.770Z,100.00
2023-05-09T22:32:28.901Z,100.00
2023-05-09T22:34:55.966Z,100.00
2023-05-09T22:37:23.000Z,100.00
2023-05-09T22:39:50.139Z,100.00
2023-05-09T22:42:17.151Z,100.00
2023-05-09T22:44:44.181Z,100.00
2023-05-09T22:47:11.268Z,100.00
2023-05-09T22:49:38.306Z,100.00
2023-05-09T22:52:05.452Z,100.00
2023-05-09T22:54:32.446Z,100.00
2023-05-09T22:56:59.502Z,100.00
2023-05-09T22:59:27.134Z,100.00
2023-05-09T23:01:54.465Z,100.00
2023-05-09T23:04:21.917Z,100.00
2023-05-09T23:06:48.950Z,100.00
2023-05-09T23:09:16.250Z,100.00
2023-05-09T23:11:43.292Z,100.00
2023-05-09T23:14:10.598Z,100.00
2023-05-09T23:16:37.676Z,100.00
2023-05-09T23:19:04.737Z,100.00
2023-05-09T23:21:31.795Z,100.00
2023-05-09T23:23:58.878Z,100.00
2023-05-09T23:26:25.883Z,100.00
2023-05-09T23:28:55.228Z,100.00
2023-05-09T23:31:22.445Z,100.00
2023-05-09T23:33:49.727Z,100.00
2023-05-09T23:36:16.943Z,100.00
2023-05-09T23:38:44.008Z,100.00
2023-05-09T23:41:11.100Z,100.00
2023-05-09T23:43:38.229Z,100.00
2023-05-09T23:46:05.400Z,100.00
2023-05-09T23:48:32.590Z,100.00
2023-05-09T23:50:59.584Z,100.00
2023-05-09T23:53:26.706Z,100.00
2023-05-09T23:55:53.731Z,100.00
2023-05-09T23:58:21.293Z,100.00
